Time;durP1;ratioP1;P1;durP2;ratioP2;P2;SDS_P1;SDS_P2;PMS_P1;PMS_P2;Temp;Humidity;BMP_temperature;BMP_pressure;BME280_temperature;BME280_humidity;BME280_pressure;Samples;Min_cycle;Max_cycle;Signal;HPM_P1;HPM_P2
2023/10/08 00:02:09;;;;;;;10.88;10.38;;;;;;;;;;5092033;28;20054;-60
2023/10/08 00:04:37;;;;;;;11.27;10.77;;;;;;;;;;5090670;28;20035;-61
2023/10/08 00:07:03;;;;;;;11.02;10.52;;;;;;;;;;5087386;28;20115;-60
2023/10/08 00:09:34;;;;;;;11.00;10.50;;;;;;;;;;5083976;28;20027;-61
2023/10/08 00:12:01;;;;;;;10.70;10.20;;;;;;;;;;5083627;28;20139;-61
2023/10/08 00:14:28;;;;;;;11.18;10.68;;;;;;;;;;5081647;28;20173;-60
2023/10/08 00:16:54;;;;;;;11.45;10.95;;;;;;;;;;5066086;28;20031;-63
2023/10/08 00:19:21;;;;;;;11.50;11.00;;;;;;;;;;5077766;28;20058;-65
2023/10/08 00:21:48;;;;;;;11.00;10.50;;;;;;;;;;5081041;28;20024;-64
2023/10/08 00:24:13;;;;;;;11.63;11.13;;;;;;;;;;5076172;28;20501;-64
2023/10/08 00:26:41;;;;;;;10.55;10.05;;;;;;;;;;5087121;28;20020;-64
2023/10/08 00:29:21;;;;;;;10.93;10.43;;;;;;;;;;5086205;28;20399;-65
2023/10/08 00:31:47;;;;;;;11.02;10.52;;;;;;;;;;5088537;28;20031;-64
2023/10/08 00:34:13;;;;;;;11.35;10.85;;;;;;;;;;5087831;28;20038;-65
2023/10/08 00:36:43;;;;;;;11.32;10.82;;;;;;;;;;5088190;28;20020;-65
2023/10/08 00:39:13;;;;;;;10.40;9.93;;;;;;;;;;5085870;28;20020;-65
2023/10/08 00:41:42;;;;;;;10.90;10.40;;;;;;;;;;5085085;28;20039;-65
2023/10/08 00:44:09;;;;;;;10.80;10.30;;;;;;;;;;5083278;28;20021;-65
2023/10/08 00:46:47;;;;;;;10.85;10.35;;;;;;;;;;5090753;28;20539;-65
2023/10/08 00:51:59;;;;;;;11.05;10.55;;;;;;;;;;5087124;28;20020;-65
2023/10/08 00:54:28;;;;;;;11.23;10.73;;;;;;;;;;5082485;28;20427;-65
2023/10/08 00:56:57;;;;;;;10.73;10.23;;;;;;;;;;5085512;28;20023;-65
2023/10/08 00:59:23;;;;;;;11.15;10.65;;;;;;;;;;5089607;28;20023;-64
2023/10/08 01:02:04;;;;;;;11.45;10.95;;;;;;;;;;5084570;28;20028;-65
2023/10/08 01:04:33;;;;;;;11.07;10.57;;;;;;;;;;5086067;28;20032;-65
2023/10/08 01:07:01;;;;;;;11.07;10.57;;;;;;;;;;5074825;28;20059;-64
2023/10/08 01:09:35;;;;;;;11.27;10.77;;;;;;;;;;5089117;28;20028;-65
2023/10/08 01:15:05;;;;;;;11.15;10.65;;;;;;;;;;5073316;28;20036;-65
2023/10/08 01:17:32;;;;;;;10.60;10.10;;;;;;;;;;5085028;28;20039;-64
2023/10/08 01:20:08;;;;;;;10.80;10.30;;;;;;;;;;5082905;28;20059;-64
2023/10/08 01:22:38;;;;;;;10.80;10.30;;;;;;;;;;5084432;28;20112;-65
2023/10/08 01:25:04;;;;;;;11.00;10.50;;;;;;;;;;5082383;28;20012;-64
2023/10/08 01:27:34;;;;;;;10.68;10.18;;;;;;;;;;5080485;28;20116;-64
2023/10/08 01:30:09;;;;;;;11.07;10.57;;;;;;;;;;5083118;28;20020;-64
2023/10/08 01:32:35;;;;;;;10.85;10.35;;;;;;;;;;5088282;28;20024;-63
2023/10/08 01:35:00;;;;;;;11.20;10.70;;;;;;;;;;5081205;28;20112;-64
2023/10/08 01:37:27;;;;;;;10.93;10.43;;;;;;;;;;5079963;28;20519;-63
2023/10/08 01:39:53;;;;;;;10.98;10.48;;;;;;;;;;5082053;28;20509;-64
2023/10/08 01:42:23;;;;;;;11.30;10.80;;;;;;;;;;5081157;28;20043;-65
2023/10/08 01:44:50;;;;;;;10.88;10.38;;;;;;;;;;5082213;28;20017;-64
2023/10/08 01:47:16;;;;;;;11.65;11.15;;;;;;;;;;5076648;28;20614;-65
2023/10/08 01:49:43;;;;;;;11.55;11.05;;;;;;;;;;5080742;28;20107;-65
2023/10/08 01:52:13;;;;;;;10.77;10.27;;;;;;;;;;5084860;28;20493;-64
2023/10/08 01:54:40;;;;;;;11.00;10.50;;;;;;;;;;5083027;28;20381;-64
2023/10/08 01:57:08;;;;;;;11.02;10.52;;;;;;;;;;5085844;28;20051;-64
2023/10/08 01:59:33;;;;;;;11.02;10.52;;;;;;;;;;5087233;28;20036;-65
2023/10/08 02:01:59;;;;;;;11.45;10.95;;;;;;;;;;5081155;28;20030;-65
2023/10/08 02:04:25;;;;;;;11.27;10.77;;;;;;;;;;5085808;28;20402;-64
2023/10/08 02:06:50;;;;;;;11.48;10.98;;;;;;;;;;5050776;28;20455;-66
2023/10/08 02:09:16;;;;;;;11.48;10.98;;;;;;;;;;5082249;28;20024;-64
2023/10/08 02:11:53;;;;;;;10.63;10.13;;;;;;;;;;5084396;28;20024;-64
2023/10/08 02:14:18;;;;;;;10.90;10.40;;;;;;;;;;5082373;28;20381;-64
2023/10/08 02:16:45;;;;;;;10.90;10.40;;;;;;;;;;5081758;28;20103;-64
2023/10/08 02:19:10;;;;;;;10.75;10.25;;;;;;;;;;5081154;28;20067;-64
2023/10/08 02:21:37;;;;;;;11.30;10.80;;;;;;;;;;5081095;28;20045;-64
2023/10/08 02:24:03;;;;;;;11.00;10.50;;;;;;;;;;5082389;28;20447;-64
2023/10/08 02:26:29;;;;;;;11.00;10.50;;;;;;;;;;5079499;28;20043;-65
2023/10/08 02:28:54;;;;;;;11.02;10.52;;;;;;;;;;5082144;28;20498;-64
2023/10/08 02:31:19;;;;;;;11.63;11.13;;;;;;;;;;5077860;28;20035;-64
2023/10/08 02:33:45;;;;;;;11.57;11.07;;;;;;;;;;5079208;28;20078;-66
2023/10/08 02:36:10;;;;;;;11.18;10.68;;;;;;;;;;5085092;28;20028;-64
2023/10/08 02:38:38;;;;;;;11.38;10.88;;;;;;;;;;5067441;28;20471;-65
2023/10/08 02:41:06;;;;;;;11.50;11.00;;;;;;;;;;5064158;28;20035;-64
2023/10/08 02:43:31;;;;;;;11.18;10.68;;;;;;;;;;5086976;28;20039;-63
2023/10/08 02:45:59;;;;;;;11.43;10.93;;;;;;;;;;5062396;28;20020;-64
2023/10/08 02:48:25;;;;;;;10.77;10.27;;;;;;;;;;5083174;28;20028;-64
2023/10/08 02:50:53;;;;;;;11.07;10.57;;;;;;;;;;5083342;28;20439;-64
2023/10/08 02:53:20;;;;;;;11.38;10.88;;;;;;;;;;5085078;28;20053;-63
2023/10/08 02:55:46;;;;;;;10.98;10.48;;;;;;;;;;5083496;28;20028;-64
2023/10/08 02:58:14;;;;;;;11.10;10.60;;;;;;;;;;5077957;28;20104;-64
2023/10/08 03:00:40;;;;;;;11.07;10.57;;;;;;;;;;5080466;28;20023;-65
2023/10/08 03:03:15;;;;;;;10.75;10.25;;;;;;;;;;5085128;28;20097;-63
2023/10/08 03:05:41;;;;;;;11.20;10.70;;;;;;;;;;5081543;28;20044;-65
2023/10/08 03:08:10;;;;;;;11.45;10.95;;;;;;;;;;5081632;28;20088;-64
2023/10/08 03:10:37;;;;;;;10.80;10.30;;;;;;;;;;5085890;28;20441;-65
2023/10/08 03:13:07;;;;;;;10.65;10.15;;;;;;;;;;5088117;28;20020;-65
2023/10/08 03:15:40;;;;;;;11.35;10.85;;;;;;;;;;5088042;28;20047;-63
2023/10/08 03:18:14;;;;;;;10.77;10.27;;;;;;;;;;5086223;28;20405;-65
2023/10/08 03:20:42;;;;;;;11.33;10.83;;;;;;;;;;5087711;28;20478;-66
2023/10/08 03:23:33;;;;;;;10.93;10.43;;;;;;;;;;5089972;28;20043;-65
2023/10/08 03:26:00;;;;;;;10.98;10.48;;;;;;;;;;5090378;28;20025;-65
2023/10/08 03:28:27;;;;;;;10.68;10.18;;;;;;;;;;5088971;28;20039;-65
2023/10/08 03:31:02;;;;;;;11.68;11.18;;;;;;;;;;5083167;28;20102;-65
2023/10/08 03:33:28;;;;;;;11.48;10.98;;;;;;;;;;5088853;28;20461;-65
2023/10/08 03:35:55;;;;;;;10.82;10.32;;;;;;;;;;5086555;28;20028;-64
2023/10/08 03:41:28;;;;;;;11.10;10.60;;;;;;;;;;5044565;28;20047;-65
2023/10/08 03:44:05;;;;;;;11.23;10.73;;;;;;;;;;5083840;28;20027;-65
2023/10/08 03:46:31;;;;;;;10.90;10.40;;;;;;;;;;5080429;28;20027;-65
2023/10/08 03:48:57;;;;;;;10.80;10.30;;;;;;;;;;5083760;28;20024;-65
2023/10/08 03:51:27;;;;;;;11.05;10.55;;;;;;;;;;5088238;28;20414;-64
2023/10/08 03:54:29;;;;;;;11.45;10.95;;;;;;;;;;5084341;28;20031;-65
2023/10/08 03:56:48;;;;;;;11.18;10.68;;;;;;;;;;5077419;28;20109;-64
2023/10/08 03:59:14;;;;;;;10.73;10.23;;;;;;;;;;5087956;28;20027;-64
2023/10/08 04:01:43;;;;;;;11.00;10.50;;;;;;;;;;5085332;28;20475;-65
2023/10/08 04:04:14;;;;;;;11.30;10.80;;;;;;;;;;5086032;28;20019;-65
2023/10/08 04:06:47;;;;;;;10.93;10.43;;;;;;;;;;5080410;28;20032;-64
2023/10/08 04:09:18;;;;;;;11.15;10.65;;;;;;;;;;5085147;28;20035;-64
2023/10/08 04:11:51;;;;;;;10.57;10.07;;;;;;;;;;5087945;28;20162;-65
2023/10/08 04:14:20;;;;;;;11.00;10.50;;;;;;;;;;5087337;28;20072;-64
2023/10/08 04:16:46;;;;;;;11.38;10.88;;;;;;;;;;5093346;28;20032;-65
2023/10/08 04:19:12;;;;;;;11.00;10.50;;;;;;;;;;5083345;28;20024;-64
2023/10/08 04:21:39;;;;;;;10.80;10.30;;;;;;;;;;5085798;28;20028;-65
2023/10/08 04:24:08;;;;;;;12.20;11.60;;;;;;;;;;5084920;28;20020;-65
2023/10/08 04:26:33;;;;;;;10.98;10.48;;;;;;;;;;5085077;28;20020;-65
2023/10/08 04:29:02;;;;;;;10.80;10.30;;;;;;;;;;5085927;28;20436;-65
2023/10/08 04:31:43;;;;;;;11.23;10.73;;;;;;;;;;5082745;28;20105;-65
2023/10/08 04:34:15;;;;;;;10.85;10.35;;;;;;;;;;5085195;28;20555;-65
2023/10/08 04:36:40;;;;;;;10.93;10.43;;;;;;;;;;5087540;28;20038;-63
2023/10/08 04:39:13;;;;;;;10.77;10.27;;;;;;;;;;5084984;28;20066;-65
2023/10/08 04:41:45;;;;;;;11.10;10.60;;;;;;;;;;5082241;28;20488;-64
2023/10/08 04:44:14;;;;;;;10.73;10.23;;;;;;;;;;5085023;28;20032;-66
2023/10/08 04:49:26;;;;;;;10.60;10.10;;;;;;;;;;5083767;28;20023;-64
2023/10/08 04:51:58;;;;;;;10.90;10.40;;;;;;;;;;5085036;28;20039;-64
2023/10/08 04:54:30;;;;;;;11.00;10.50;;;;;;;;;;5086895;28;20501;-64
2023/10/08 04:56:59;;;;;;;11.00;10.50;;;;;;;;;;5084034;28;20115;-64
2023/10/08 04:59:34;;;;;;;11.10;10.60;;;;;;;;;;5087484;28;20401;-65
2023/10/08 05:13:14;;;;;;;11.52;11.02;;;;;;;;;;5106087;28;20466;-65
2023/10/08 05:15:41;;;;;;;11.27;10.77;;;;;;;;;;5093271;28;20115;-65
2023/10/08 05:20:59;;;;;;;11.00;10.50;;;;;;;;;;5103993;28;20068;-66
2023/10/08 05:28:30;;;;;;;11.10;10.60;;;;;;;;;;5103102;27;20032;-66
2023/10/08 05:31:21;;;;;;;10.90;10.40;;;;;;;;;;5096663;28;20149;-64
2023/10/08 05:34:14;;;;;;;11.30;10.80;;;;;;;;;;5102358;28;20372;-67
2023/10/08 05:39:32;;;;;;;11.32;10.82;;;;;;;;;;5101192;28;20115;-66
2023/10/08 05:42:13;;;;;;;11.38;10.88;;;;;;;;;;5095390;27;20062;-65
2023/10/08 05:44:39;;;;;;;11.52;11.02;;;;;;;;;;5093504;27;20031;-65
2023/10/08 05:50:28;;;;;;;11.27;10.77;;;;;;;;;;5103124;27;20030;-66
2023/10/08 05:55:26;;;;;;;11.80;11.30;;;;;;;;;;5098495;28;20027;-64
2023/10/08 05:58:02;;;;;;;11.60;11.10;;;;;;;;;;5098330;28;20030;-64
2023/10/08 06:03:31;;;;;;;11.30;10.80;;;;;;;;;;5103995;27;20076;-64
2023/10/08 06:06:22;;;;;;;11.23;10.73;;;;;;;;;;5094020;27;20111;-65
2023/10/08 06:08:52;;;;;;;11.20;10.70;;;;;;;;;;5082914;28;20032;-65
2023/10/08 06:11:36;;;;;;;11.43;10.93;;;;;;;;;;5078449;28;20028;-64
2023/10/08 06:14:03;;;;;;;11.30;10.80;;;;;;;;;;5079626;28;20547;-65
2023/10/08 06:16:41;;;;;;;11.50;11.00;;;;;;;;;;5080001;28;20542;-65
2023/10/08 06:19:06;;;;;;;11.38;10.88;;;;;;;;;;5083450;28;20031;-64
2023/10/08 06:21:32;;;;;;;11.82;11.32;;;;;;;;;;5080894;28;20020;-64
2023/10/08 06:23:57;;;;;;;11.10;10.60;;;;;;;;;;5085054;28;20019;-64
2023/10/08 06:26:25;;;;;;;11.40;10.90;;;;;;;;;;5083383;28;20028;-65
2023/10/08 06:28:57;;;;;;;11.05;10.55;;;;;;;;;;5077226;28;20016;-63
2023/10/08 06:31:24;;;;;;;11.07;10.57;;;;;;;;;;5084877;28;20099;-65
2023/10/08 06:33:50;;;;;;;11.38;10.88;;;;;;;;;;5089003;28;20047;-64
2023/10/08 06:36:15;;;;;;;11.48;10.98;;;;;;;;;;5086413;28;20040;-64
2023/10/08 06:38:42;;;;;;;11.50;11.00;;;;;;;;;;5081509;28;20028;-65
2023/10/08 06:41:15;;;;;;;11.60;11.10;;;;;;;;;;5077690;28;20044;-64
2023/10/08 06:43:43;;;;;;;11.23;10.73;;;;;;;;;;5078292;28;20054;-65
2023/10/08 06:46:12;;;;;;;11.05;10.55;;;;;;;;;;5084356;28;20027;-65
2023/10/08 06:48:37;;;;;;;10.98;10.48;;;;;;;;;;5081241;28;20027;-65
2023/10/08 06:51:25;;;;;;;11.00;10.50;;;;;;;;;;5080488;28;20028;-65
2023/10/08 06:53:51;;;;;;;11.07;10.57;;;;;;;;;;5070309;28;20051;-66
2023/10/08 06:56:18;;;;;;;11.63;11.13;;;;;;;;;;5084704;28;20020;-66
2023/10/08 06:58:52;;;;;;;11.30;10.80;;;;;;;;;;5082657;28;20020;-66
2023/10/08 07:01:21;;;;;;;11.65;11.13;;;;;;;;;;5084214;28;20012;-65
2023/10/08 07:03:50;;;;;;;11.57;11.07;;;;;;;;;;5083570;28;20012;-64
2023/10/08 07:06:31;;;;;;;11.15;10.65;;;;;;;;;;5076095;28;20068;-65
2023/10/08 07:08:59;;;;;;;11.60;11.10;;;;;;;;;;5086592;28;20028;-64
2023/10/08 07:11:26;;;;;;;11.93;11.43;;;;;;;;;;5084381;28;20020;-66
2023/10/08 07:13:52;;;;;;;11.70;11.20;;;;;;;;;;5088943;28;20044;-66
2023/10/08 07:16:17;;;;;;;11.38;10.88;;;;;;;;;;5085566;28;20475;-66
2023/10/08 07:18:50;;;;;;;11.82;11.32;;;;;;;;;;5069066;28;20023;-66
2023/10/08 07:21:15;;;;;;;11.93;11.43;;;;;;;;;;5083257;28;20023;-65
2023/10/08 07:24:04;;;;;;;11.70;11.20;;;;;;;;;;5082725;28;20024;-64
2023/10/08 07:26:35;;;;;;;11.65;11.15;;;;;;;;;;5084050;28;20047;-64
2023/10/08 07:29:05;;;;;;;11.10;10.60;;;;;;;;;;5086587;28;20032;-66
2023/10/08 07:31:34;;;;;;;11.60;11.10;;;;;;;;;;5070576;28;20039;-66
2023/10/08 07:34:15;;;;;;;11.50;11.00;;;;;;;;;;5083336;28;20031;-65
2023/10/08 07:36:41;;;;;;;11.20;10.70;;;;;;;;;;5084570;28;20044;-65
2023/10/08 07:39:08;;;;;;;11.00;10.50;;;;;;;;;;5071345;28;20057;-65
2023/10/08 07:41:34;;;;;;;11.60;11.10;;;;;;;;;;5083034;28;20050;-66
2023/10/08 07:44:00;;;;;;;11.00;10.50;;;;;;;;;;5085503;28;20043;-66
2023/10/08 07:46:26;;;;;;;11.20;10.70;;;;;;;;;;5085119;28;20027;-65
2023/10/08 07:48:51;;;;;;;11.43;10.93;;;;;;;;;;5085949;28;20023;-63
2023/10/08 07:51:23;;;;;;;11.70;11.20;;;;;;;;;;5085756;28;20018;-64
2023/10/08 07:53:55;;;;;;;11.73;11.23;;;;;;;;;;5086425;28;20517;-63
2023/10/08 07:56:22;;;;;;;11.23;10.73;;;;;;;;;;5088489;28;20031;-64
2023/10/08 07:58:48;;;;;;;11.30;10.80;;;;;;;;;;5087176;28;20039;-64
2023/10/08 08:01:14;;;;;;;12.30;11.70;;;;;;;;;;5086291;28;20020;-63
2023/10/08 08:03:41;;;;;;;11.35;10.85;;;;;;;;;;5082790;28;20388;-64
2023/10/08 08:06:07;;;;;;;11.65;11.15;;;;;;;;;;5062865;28;20048;-64
2023/10/08 08:08:33;;;;;;;11.05;10.55;;;;;;;;;;5105810;28;20470;-64
2023/10/08 08:11:03;;;;;;;10.85;10.35;;;;;;;;;;5104656;27;20076;-65
2023/10/08 08:13:29;;;;;;;11.23;10.73;;;;;;;;;;5105674;27;20084;-64
2023/10/08 08:15:58;;;;;;;11.82;11.32;;;;;;;;;;5113211;27;20027;-64
2023/10/08 08:18:24;;;;;;;10.90;10.40;;;;;;;;;;5101955;28;20038;-66
2023/10/08 08:20:49;;;;;;;10.82;10.32;;;;;;;;;;5101351;28;20032;-65
2023/10/08 08:23:16;;;;;;;11.43;10.93;;;;;;;;;;5088702;28;20015;-64
2023/10/08 08:28:28;;;;;;;12.27;11.68;;;;;;;;;;5110990;27;20551;-64
2023/10/08 08:30:55;;;;;;;11.05;10.55;;;;;;;;;;5106252;27;20027;-64
2023/10/08 08:33:23;;;;;;;11.25;10.75;;;;;;;;;;5103307;28;20028;-64
2023/10/08 08:35:59;;;;;;;11.23;10.73;;;;;;;;;;5098912;28;20020;-63
2023/10/08 08:38:25;;;;;;;11.77;11.27;;;;;;;;;;5106366;28;20027;-63
2023/10/08 08:40:51;;;;;;;11.60;11.10;;;;;;;;;;5087018;28;20480;-65
2023/10/08 08:43:17;;;;;;;11.38;10.88;;;;;;;;;;5106665;28;20020;-64
2023/10/08 08:45:43;;;;;;;12.10;11.50;;;;;;;;;;5103172;28;20022;-64
2023/10/08 08:48:09;;;;;;;10.95;10.45;;;;;;;;;;5104252;28;20039;-63
2023/10/08 08:50:34;;;;;;;11.88;11.30;;;;;;;;;;5103198;27;21118;-64
2023/10/08 08:53:00;;;;;;;10.88;10.38;;;;;;;;;;5107273;27;20070;-64
2023/10/08 08:55:27;;;;;;;11.20;10.70;;;;;;;;;;5111542;27;20055;-63
2023/10/08 08:57:53;;;;;;;12.00;11.40;;;;;;;;;;5105047;28;20103;-63
2023/10/08 09:00:19;;;;;;;11.20;10.70;;;;;;;;;;5104929;27;20024;-64
2023/10/08 09:02:47;;;;;;;11.18;10.68;;;;;;;;;;5110590;27;20026;-63
2023/10/08 09:05:25;;;;;;;11.20;10.70;;;;;;;;;;5107906;27;20165;-63
2023/10/08 09:07:55;;;;;;;11.23;10.73;;;;;;;;;;5083460;28;20072;-63
2023/10/08 09:10:27;;;;;;;11.60;11.10;;;;;;;;;;5078938;28;20051;-64
2023/10/08 09:12:52;;;;;;;11.10;10.60;;;;;;;;;;5076575;28;20012;-63
2023/10/08 09:15:18;;;;;;;11.60;11.10;;;;;;;;;;5080485;28;20501;-63
2023/10/08 09:17:43;;;;;;;11.35;10.85;;;;;;;;;;5086269;28;20077;-63
2023/10/08 09:20:09;;;;;;;12.00;11.40;;;;;;;;;;5082185;28;20115;-64
2023/10/08 09:22:35;;;;;;;11.48;10.98;;;;;;;;;;5085009;28;20024;-64
2023/10/08 09:25:05;;;;;;;11.40;10.90;;;;;;;;;;5083045;28;20123;-63
2023/10/08 09:27:30;;;;;;;11.02;10.52;;;;;;;;;;5086082;28;20028;-62
2023/10/08 09:29:56;;;;;;;11.45;10.95;;;;;;;;;;5091123;28;20028;-62
2023/10/08 09:32:24;;;;;;;10.88;10.38;;;;;;;;;;5086799;28;20031;-62
2023/10/08 09:34:52;;;;;;;11.10;10.60;;;;;;;;;;5084884;28;20027;-61
2023/10/08 09:37:17;;;;;;;10.38;9.88;;;;;;;;;;5088007;28;20086;-61
2023/10/08 09:39:45;;;;;;;11.00;10.50;;;;;;;;;;5096068;28;20020;-62
2023/10/08 09:42:12;;;;;;;11.10;10.60;;;;;;;;;;5090453;28;20046;-60
2023/10/08 09:44:39;;;;;;;11.70;11.10;;;;;;;;;;5084409;28;20016;-62
2023/10/08 09:47:05;;;;;;;11.20;10.70;;;;;;;;;;5088014;28;20020;-63
2023/10/08 09:49:32;;;;;;;10.93;10.43;;;;;;;;;;5085267;28;20032;-63
2023/10/08 09:52:01;;;;;;;12.15;11.55;;;;;;;;;;5085367;28;20034;-62
2023/10/08 09:54:38;;;;;;;10.98;10.48;;;;;;;;;;5084323;28;20035;-61
2023/10/08 09:57:03;;;;;;;11.15;10.65;;;;;;;;;;5078579;28;20133;-60
2023/10/08 09:59:29;;;;;;;11.48;10.95;;;;;;;;;;5084591;28;20530;-62
2023/10/08 10:01:59;;;;;;;11.35;10.85;;;;;;;;;;5083557;28;20028;-62
2023/10/08 10:04:25;;;;;;;11.25;10.75;;;;;;;;;;5083716;28;20020;-61
2023/10/08 10:06:50;;;;;;;11.25;10.75;;;;;;;;;;5098000;28;20414;-62
2023/10/08 10:09:22;;;;;;;11.05;10.55;;;;;;;;;;5106496;28;20019;-62
2023/10/08 10:11:49;;;;;;;11.10;10.60;;;;;;;;;;5101387;27;20384;-61
2023/10/08 10:14:14;;;;;;;11.00;10.50;;;;;;;;;;5100896;28;20024;-62
2023/10/08 10:16:45;;;;;;;11.95;11.35;;;;;;;;;;5103557;28;20022;-63
2023/10/08 10:19:16;;;;;;;12.13;11.52;;;;;;;;;;5103232;28;20517;-64
2023/10/08 10:21:41;;;;;;;10.98;10.48;;;;;;;;;;5098494;27;20027;-66
2023/10/08 10:24:22;;;;;;;10.27;9.77;;;;;;;;;;5099430;28;20020;-65
2023/10/08 10:26:50;;;;;;;10.90;10.40;;;;;;;;;;5094962;28;20032;-67
2023/10/08 10:29:19;;;;;;;10.70;10.20;;;;;;;;;;5100863;28;20473;-66
2023/10/08 10:31:54;;;;;;;10.90;10.40;;;;;;;;;;5106810;27;20015;-67
2023/10/08 10:34:30;;;;;;;11.60;11.00;;;;;;;;;;5106516;27;20110;-65
2023/10/08 10:36:58;;;;;;;10.50;10.00;;;;;;;;;;5090974;28;20020;-66
2023/10/08 10:39:27;;;;;;;11.07;10.57;;;;;;;;;;5085523;28;20030;-66
2023/10/08 10:41:57;;;;;;;12.27;11.68;;;;;;;;;;5096088;28;20012;-64
2023/10/08 10:44:23;;;;;;;11.48;10.88;;;;;;;;;;5100467;27;20102;-65
2023/10/08 10:46:52;;;;;;;10.93;10.43;;;;;;;;;;5100674;28;20168;-65
2023/10/08 10:49:36;;;;;;;11.18;10.65;;;;;;;;;;5099473;28;20171;-67
2023/10/08 10:52:05;;;;;;;10.50;10.00;;;;;;;;;;5106154;28;20031;-65
2023/10/08 10:54:36;;;;;;;11.02;10.52;;;;;;;;;;5105215;28;20047;-67
2023/10/08 10:57:17;;;;;;;10.50;10.00;;;;;;;;;;5104155;28;20403;-66
2023/10/08 10:59:52;;;;;;;10.52;10.02;;;;;;;;;;5107072;28;20445;-67
2023/10/08 11:02:30;;;;;;;11.52;10.93;;;;;;;;;;5103392;28;20027;-65
2023/10/08 11:05:01;;;;;;;12.38;11.77;;;;;;;;;;5093641;28;20051;-66
2023/10/08 11:07:26;;;;;;;10.70;10.20;;;;;;;;;;5079358;28;20044;-68
2023/10/08 11:09:55;;;;;;;10.50;10.00;;;;;;;;;;5088061;28;20046;-67
2023/10/08 11:12:32;;;;;;;10.80;10.30;;;;;;;;;;5085779;28;20036;-66
2023/10/08 11:14:57;;;;;;;11.38;10.80;;;;;;;;;;5085691;28;20059;-67
2023/10/08 11:17:25;;;;;;;10.75;10.25;;;;;;;;;;5089399;28;20447;-65
2023/10/08 11:19:50;;;;;;;10.57;10.07;;;;;;;;;;5080605;28;20403;-66
2023/10/08 11:22:16;;;;;;;11.20;10.70;;;;;;;;;;5080440;28;20019;-67
2023/10/08 11:25:05;;;;;;;10.80;10.30;;;;;;;;;;5087850;28;20659;-66
2023/10/08 11:27:29;;;;;;;10.25;9.75;;;;;;;;;;5087797;28;20039;-66
2023/10/08 11:29:58;;;;;;;11.00;10.50;;;;;;;;;;5090260;28;20377;-66
2023/10/08 11:32:27;;;;;;;10.50;10.00;;;;;;;;;;5090510;28;20028;-66
2023/10/08 11:34:55;;;;;;;10.30;9.80;;;;;;;;;;5084804;28;20065;-67
2023/10/08 11:37:28;;;;;;;10.85;10.35;;;;;;;;;;5086742;28;20044;-66
2023/10/08 11:39:58;;;;;;;10.73;10.23;;;;;;;;;;5086240;28;20126;-66
2023/10/08 11:42:43;;;;;;;10.73;10.23;;;;;;;;;;5082137;28;20016;-65
2023/10/08 11:45:18;;;;;;;10.70;10.20;;;;;;;;;;5086822;28;20036;-67
2023/10/08 11:47:45;;;;;;;11.15;10.65;;;;;;;;;;5089688;28;20471;-67
2023/10/08 11:50:11;;;;;;;11.02;10.52;;;;;;;;;;5068229;28;20023;-66
2023/10/08 11:52:41;;;;;;;10.52;10.02;;;;;;;;;;5085516;28;20016;-66
2023/10/08 11:55:07;;;;;;;11.07;10.57;;;;;;;;;;5085720;28;20489;-65
2023/10/08 11:57:35;;;;;;;10.80;10.30;;;;;;;;;;5088026;28;20103;-65
2023/10/08 12:00:01;;;;;;;10.80;10.30;;;;;;;;;;5083047;28;20027;-66
2023/10/08 12:02:26;;;;;;;10.30;9.80;;;;;;;;;;5089437;28;20024;-67
2023/10/08 12:04:52;;;;;;;10.63;10.13;;;;;;;;;;5091790;28;20020;-65
2023/10/08 12:07:17;;;;;;;11.10;10.60;;;;;;;;;;5071393;28;20411;-68
2023/10/08 12:09:43;;;;;;;10.25;9.75;;;;;;;;;;5090051;28;20035;-66
2023/10/08 12:12:09;;;;;;;11.45;10.88;;;;;;;;;;5088655;28;20031;-66
2023/10/08 12:14:37;;;;;;;11.20;10.70;;;;;;;;;;5073747;28;20016;-67
2023/10/08 12:17:11;;;;;;;10.80;10.30;;;;;;;;;;5088122;28;20031;-66
2023/10/08 12:19:36;;;;;;;11.23;10.73;;;;;;;;;;5087363;28;20032;-66
2023/10/08 12:22:02;;;;;;;10.65;10.15;;;;;;;;;;5089179;28;20023;-66
2023/10/08 12:24:28;;;;;;;11.00;10.50;;;;;;;;;;5088802;28;20162;-66
2023/10/08 12:26:53;;;;;;;10.75;10.25;;;;;;;;;;5092051;28;20024;-67
2023/10/08 12:29:19;;;;;;;11.18;10.68;;;;;;;;;;5089477;28;20106;-65
2023/10/08 12:31:47;;;;;;;11.05;10.55;;;;;;;;;;5084348;28;20036;-66
2023/10/08 12:34:13;;;;;;;10.32;9.82;;;;;;;;;;5087098;28;20020;-66
2023/10/08 12:36:38;;;;;;;11.30;10.73;;;;;;;;;;5085398;28;20078;-65
2023/10/08 12:39:11;;;;;;;10.70;10.20;;;;;;;;;;5087878;28;20016;-65
2023/10/08 12:41:39;;;;;;;11.38;10.82;;;;;;;;;;5082801;28;20020;-66
2023/10/08 12:44:08;;;;;;;10.20;9.70;;;;;;;;;;5089150;28;20095;-66
2023/10/08 12:46:33;;;;;;;10.70;10.20;;;;;;;;;;5088093;28;20463;-66
2023/10/08 12:49:01;;;;;;;10.30;9.80;;;;;;;;;;5090391;28;20020;-66
2023/10/08 12:51:31;;;;;;;10.57;10.07;;;;;;;;;;5086757;28;20025;-67
2023/10/08 12:54:11;;;;;;;10.98;10.48;;;;;;;;;;5086619;28;20042;-66
2023/10/08 12:56:44;;;;;;;11.05;10.55;;;;;;;;;;5083330;28;20099;-67
2023/10/08 12:59:20;;;;;;;10.85;10.35;;;;;;;;;;5086816;28;20020;-66
2023/10/08 13:01:45;;;;;;;11.98;11.38;;;;;;;;;;5087394;28;20530;-67
2023/10/08 13:04:15;;;;;;;10.82;10.32;;;;;;;;;;5084619;28;20059;-66
2023/10/08 13:06:45;;;;;;;11.10;10.60;;;;;;;;;;5092747;28;20052;-66
2023/10/08 13:09:14;;;;;;;10.45;9.95;;;;;;;;;;5091610;28;20020;-67
2023/10/08 13:11:39;;;;;;;11.00;10.50;;;;;;;;;;5090755;28;20077;-65
2023/10/08 13:14:05;;;;;;;9.95;9.55;;;;;;;;;;5093218;28;20467;-66
2023/10/08 13:16:36;;;;;;;10.95;10.45;;;;;;;;;;5088506;28;20082;-66
2023/10/08 13:19:03;;;;;;;10.30;9.80;;;;;;;;;;5084011;28;20502;-67
2023/10/08 13:21:28;;;;;;;10.40;9.90;;;;;;;;;;5079298;28;20031;-66
2023/10/08 13:24:02;;;;;;;10.52;10.02;;;;;;;;;;5081807;28;20403;-67
2023/10/08 13:26:31;;;;;;;10.38;9.88;;;;;;;;;;5085993;28;20461;-65
2023/10/08 13:28:59;;;;;;;9.88;9.48;;;;;;;;;;5094971;28;20020;-66
2023/10/08 13:31:25;;;;;;;10.60;10.10;;;;;;;;;;5089886;28;20138;-66
2023/10/08 13:33:52;;;;;;;10.30;9.80;;;;;;;;;;5088188;28;20019;-65
2023/10/08 13:36:17;;;;;;;10.32;9.82;;;;;;;;;;5089141;28;20114;-67
2023/10/08 13:38:48;;;;;;;10.23;9.73;;;;;;;;;;5084097;28;20043;-65
2023/10/08 13:41:20;;;;;;;10.77;10.27;;;;;;;;;;5089237;28;20038;-66
2023/10/08 13:43:46;;;;;;;10.98;10.48;;;;;;;;;;5087045;28;20035;-66
2023/10/08 13:46:13;;;;;;;10.57;10.07;;;;;;;;;;5089772;28;20511;-65
2023/10/08 13:48:39;;;;;;;10.93;10.43;;;;;;;;;;5086733;28;20016;-65
2023/10/08 13:51:05;;;;;;;9.98;9.55;;;;;;;;;;5087205;28;20024;-66
2023/10/08 13:53:36;;;;;;;10.77;10.27;;;;;;;;;;5086524;28;20102;-66
2023/10/08 13:56:02;;;;;;;10.98;10.48;;;;;;;;;;5085029;28;20032;-67
2023/10/08 13:58:29;;;;;;;10.18;9.68;;;;;;;;;;5086087;28;20555;-67
2023/10/08 14:00:55;;;;;;;11.18;10.65;;;;;;;;;;5088209;28;20371;-66
2023/10/08 14:03:21;;;;;;;10.40;9.90;;;;;;;;;;5085013;28;20020;-66
2023/10/08 14:05:50;;;;;;;11.38;10.77;;;;;;;;;;5090137;28;20047;-66
2023/10/08 14:08:16;;;;;;;10.70;10.20;;;;;;;;;;5103642;27;20027;-66
2023/10/08 14:10:43;;;;;;;10.40;9.90;;;;;;;;;;5106267;27;20027;-65
2023/10/08 14:13:08;;;;;;;10.32;9.82;;;;;;;;;;5101324;28;20024;-65
2023/10/08 14:15:36;;;;;;;11.32;10.73;;;;;;;;;;5103815;27;20024;-66
2023/10/08 14:18:07;;;;;;;10.68;10.18;;;;;;;;;;5104264;27;20051;-66
2023/10/08 14:20:32;;;;;;;10.75;10.25;;;;;;;;;;5101322;28;20084;-66
2023/10/08 14:23:02;;;;;;;11.48;10.88;;;;;;;;;;5103323;27;20019;-67
2023/10/08 14:25:28;;;;;;;11.02;10.52;;;;;;;;;;5105363;27;20039;-65
2023/10/08 14:27:54;;;;;;;11.57;10.98;;;;;;;;;;5100399;27;20031;-66
2023/10/08 14:30:24;;;;;;;10.68;10.18;;;;;;;;;;5084569;28;20111;-67
2023/10/08 14:32:49;;;;;;;11.00;10.50;;;;;;;;;;5099775;28;20024;-66
2023/10/08 14:43:48;;;;;;;10.53;10.03;;;;;;;;;;5042557;28;20020;-67
2023/10/08 14:46:14;;;;;;;11.40;10.80;;;;;;;;;;5083817;28;20276;-65
2023/10/08 14:48:40;;;;;;;11.00;10.50;;;;;;;;;;5107462;28;20111;-67
2023/10/08 14:51:06;;;;;;;10.40;9.90;;;;;;;;;;5110824;27;20102;-67
2023/10/08 14:53:33;;;;;;;11.93;11.32;;;;;;;;;;5101184;28;20085;-65
2023/10/08 14:56:03;;;;;;;10.55;10.05;;;;;;;;;;5086230;28;20035;-67
2023/10/08 14:58:28;;;;;;;10.35;9.85;;;;;;;;;;5106516;27;20043;-66
2023/10/08 15:00:54;;;;;;;10.50;10.00;;;;;;;;;;5105890;28;20646;-67
2023/10/08 15:03:20;;;;;;;10.63;10.13;;;;;;;;;;5102414;28;20094;-65
2023/10/08 15:05:47;;;;;;;12.35;11.70;;;;;;;;;;5102867;28;20047;-66
2023/10/08 15:08:14;;;;;;;10.07;9.57;;;;;;;;;;5089147;28;20368;-66
2023/10/08 15:10:40;;;;;;;10.43;9.93;;;;;;;;;;5109684;28;20028;-65
2023/10/08 15:13:06;;;;;;;11.05;10.52;;;;;;;;;;5105099;28;20463;-66
2023/10/08 15:15:34;;;;;;;10.77;10.27;;;;;;;;;;5112627;28;20120;-66
2023/10/08 15:18:02;;;;;;;11.20;10.63;;;;;;;;;;5106505;28;20031;-67
2023/10/08 15:20:30;;;;;;;10.68;10.18;;;;;;;;;;5087602;28;20699;-66
2023/10/08 15:22:56;;;;;;;10.73;10.23;;;;;;;;;;5080387;28;20031;-67